Time;durP1;ratioP1;P1;durP2;ratioP2;P2;SDS_P1;SDS_P2;PMS_P1;PMS_P2;Temp;Humidity;BMP_temperature;BMP_pressure;BME280_temperature;BME280_humidity;BME280_pressure;Samples;Min_cycle;Max_cycle;Signal;HPM_P1;HPM_P2
2023/03/29 00:00:12;;;;;;;;;16.33;12.00;;;;;11.21;56.63;101417.84;4998145;28;45733;-48
2023/03/29 00:02:41;;;;;;;;;16.67;11.00;;;;;11.24;56.56;101425.56;4997397;28;46099;-49
2023/03/29 00:05:09;;;;;;;;;17.67;13.67;;;;;11.30;56.14;101423.34;4992116;28;45336;-48
2023/03/29 00:07:34;;;;;;;;;13.67;13.33;;;;;11.32;56.62;101416.91;4997553;28;45503;-49
2023/03/29 00:10:01;;;;;;;;;14.33;12.00;;;;;11.33;55.82;101413.25;4997644;28;45330;-49
2023/03/29 00:12:27;;;;;;;;;11.33;11.00;;;;;11.36;56.05;101404.16;4997570;28;46348;-48
2023/03/29 00:14:52;;;;;;;;;17.33;12.00;;;;;11.35;56.12;101402.47;4979469;28;45389;-48
2023/03/29 00:17:18;;;;;;;;;15.33;14.33;;;;;11.34;56.48;101398.97;4979224;28;45438;-47
2023/03/29 00:19:44;;;;;;;;;12.33;11.00;;;;;11.33;55.90;101409.75;4995154;28;45278;-48
2023/03/29 00:22:10;;;;;;;;;14.33;12.33;;;;;11.24;56.30;101388.25;4997296;28;46004;-48
2023/03/29 00:24:35;;;;;;;;;15.00;13.00;;;;;11.35;56.00;101397.16;4997116;28;45624;-52
2023/03/29 00:27:01;;;;;;;;;11.67;10.67;;;;;11.32;56.07;101386.75;4997578;28;45477;-45
2023/03/29 00:29:27;;;;;;;;;10.67;10.33;;;;;11.26;55.13;101379.31;4997396;28;45457;-47
2023/03/29 00:31:53;;;;;;;;;12.00;11.00;;;;;11.36;55.98;101401.50;4997514;28;46046;-46
2023/03/29 00:34:30;;;;;;;;;13.33;10.67;;;;;11.34;56.04;101396.31;4979261;28;45968;-48
2023/03/29 00:36:57;;;;;;;;;10.00;8.33;;;;;11.35;55.90;101408.66;4997280;28;45441;-50
2023/03/29 00:39:23;;;;;;;;;11.67;9.00;;;;;11.35;55.55;101403.31;4997722;28;45517;-48
2023/03/29 00:41:49;;;;;;;;;12.33;12.00;;;;;11.35;55.30;101391.81;4996601;28;45468;-49
2023/03/29 00:44:52;;;;;;;;;12.00;11.00;;;;;11.35;55.38;101403.31;4979432;28;45365;-44
2023/03/29 00:47:23;;;;;;;;;11.33;11.33;;;;;11.35;56.00;101402.47;4997140;28;45397;-43
2023/03/29 00:49:51;;;;;;;;;12.00;11.00;;;;;11.36;55.75;101402.34;4997529;28;45446;-44
2023/03/29 00:52:20;;;;;;;;;12.67;9.67;;;;;11.38;55.58;101404.88;4978616;28;47578;-46
2023/03/29 00:54:50;;;;;;;;;10.33;10.00;;;;;11.01;55.76;101335.38;4996915;28;45343;-49
2023/03/29 00:57:19;;;;;;;;;12.00;10.33;;;;;11.36;55.94;101405.00;4997175;28;45514;-49
2023/03/29 00:59:47;;;;;;;;;14.00;10.00;;;;;11.37;55.65;101400.50;4996461;28;45203;-48
2023/03/29 01:02:16;;;;;;;;;8.00;6.33;;;;;11.39;55.62;101396.75;4996824;28;47316;-48
2023/03/29 01:04:54;;;;;;;;;16.33;11.33;;;;;11.40;55.12;101389.59;4996834;28;45410;-44
2023/03/29 01:07:27;;;;;;;;;16.00;11.67;;;;;11.35;55.55;101376.69;4996414;28;45463;-48
2023/03/29 01:09:59;;;;;;;;;12.50;10.50;;;;;11.40;55.44;101386.91;4996460;28;45519;-48
2023/03/29 01:12:31;;;;;;;;;12.67;8.67;;;;;11.38;55.52;101392.41;4996772;28;46397;-47
2023/03/29 01:15:08;;;;;;;;;16.00;11.00;;;;;11.36;55.61;101389.00;4996474;28;45349;-49
2023/03/29 01:17:34;;;;;;;;;7.33;7.33;;;;;11.35;55.27;101382.00;4996508;28;45476;-49
2023/03/29 01:20:09;;;;;;;;;8.33;8.33;;;;;11.26;55.21;101374.84;4996804;28;45306;-46
2023/03/29 01:23:02;;;;;;;;;11.33;10.67;;;;;11.32;55.49;101381.44;4996766;28;45970;-48
2023/03/29 01:25:33;;;;;;;;;11.33;10.00;;;;;11.35;55.18;101381.16;4996753;28;45341;-44
2023/03/29 01:28:08;;;;;;;;;12.33;10.33;;;;;11.28;55.37;101358.72;4996255;28;45405;-44
2023/03/29 01:30:50;;;;;;;;;11.00;8.00;;;;;11.33;55.31;101367.13;4996408;28;45461;-47
2023/03/29 01:33:49;;;;;;;;;9.33;9.00;;;;;11.31;55.45;101358.44;4996366;28;47061;-47
2023/03/29 01:36:27;;;;;;;;;12.33;8.67;;;;;11.26;55.36;101358.84;4993819;28;45372;-48
2023/03/29 01:38:57;;;;;;;;;9.67;7.00;;;;;11.24;55.69;101358.97;4995802;28;45397;-47
2023/03/29 01:41:33;;;;;;;;;12.00;9.33;;;;;11.24;54.89;101369.63;4995502;28;45525;-47
2023/03/29 01:44:06;;;;;;;;;12.67;11.67;;;;;11.23;55.58;101365.28;4978545;28;46737;-44
2023/03/29 01:46:43;;;;;;;;;12.33;11.00;;;;;11.21;55.36;101361.09;4996028;28;45488;-48
2023/03/29 01:49:22;;;;;;;;;11.00;10.33;;;;;11.21;55.47;101367.25;4996051;28;45432;-48
2023/03/29 01:52:00;;;;;;;;;17.67;13.00;;;;;11.24;55.82;101360.78;4991952;28;45305;-47
2023/03/29 01:54:43;;;;;;;;;12.33;10.67;;;;;11.26;55.66;101361.53;4994567;28;46361;-47
2023/03/29 01:57:10;;;;;;;;;14.00;11.00;;;;;11.21;55.57;101355.75;4996185;28;45472;-47
2023/03/29 01:59:40;;;;;;;;;11.33;10.00;;;;;11.31;55.62;101364.59;4995825;28;45496;-42
2023/03/29 02:02:10;;;;;;;;;12.33;11.33;;;;;11.31;55.78;101366.44;4995751;28;45548;-46
2023/03/29 02:04:46;;;;;;;;;11.00;10.00;;;;;11.21;55.66;101351.28;4995384;28;45557;-47
2023/03/29 02:07:14;;;;;;;;;10.67;9.33;;;;;11.31;55.41;101369.09;4995462;28;45411;-43
2023/03/29 02:09:41;;;;;;;;;12.00;12.00;;;;;11.22;55.57;101354.78;4995895;28;45531;-46
2023/03/29 02:12:08;;;;;;;;;13.67;10.67;;;;;11.28;55.73;101375.53;4996078;28;45355;-46
2023/03/29 02:14:34;;;;;;;;;14.00;14.00;;;;;11.27;55.83;101363.19;4995432;28;47137;-44
2023/03/29 02:17:17;;;;;;;;;16.33;10.33;;;;;11.25;55.68;101362.50;4995494;28;45550;-44
2023/03/29 02:19:48;;;;;;;;;11.00;11.00;;;;;11.25;56.10;101367.84;4996042;28;45464;-44
2023/03/29 02:22:21;;;;;;;;;14.33;11.33;;;;;11.27;55.79;101351.69;4995409;28;45456;-49
2023/03/29 02:24:49;;;;;;;;;11.00;11.00;;;;;11.24;56.12;101350.16;4995400;28;46193;-46
2023/03/29 02:27:15;;;;;;;;;11.67;10.33;;;;;11.27;56.27;101352.53;4995872;28;45456;-49
2023/03/29 02:29:41;;;;;;;;;11.67;10.00;;;;;11.28;56.06;101351.56;4995483;28;45517;-46
2023/03/29 02:32:33;;;;;;;;;10.00;9.67;;;;;11.30;55.65;101348.78;4977785;28;45439;-47
2023/03/29 02:35:11;;;;;;;;;14.67;11.67;;;;;11.20;56.15;101322.94;4995500;28;45983;-43
2023/03/29 02:37:41;;;;;;;;;13.33;10.33;;;;;11.26;56.04;101334.06;4995409;28;45361;-41
2023/03/29 02:40:11;;;;;;;;;12.00;10.33;;;;;11.27;56.12;101343.72;4995221;28;45469;-49
2023/03/29 02:42:42;;;;;;;;;15.00;10.00;;;;;11.25;56.41;101341.19;4995496;28;45321;-47
2023/03/29 02:45:09;;;;;;;;;11.33;11.00;;;;;11.28;56.46;101340.91;4995281;28;46069;-46
2023/03/29 02:47:42;;;;;;;;;10.67;10.33;;;;;11.19;56.72;101309.78;4994990;28;45492;-45
2023/03/29 02:50:08;;;;;;;;;13.00;11.67;;;;;11.27;56.80;101323.25;4989822;28;45418;-45
2023/03/29 02:52:38;;;;;;;;;14.33;10.00;;;;;11.22;57.06;101323.66;4996499;28;45532;-49
2023/03/29 02:55:10;;;;;;;;;18.33;11.67;;;;;11.20;56.75;101322.94;4998571;28;46076;-42
2023/03/29 02:57:38;;;;;;;;;13.00;12.00;;;;;11.20;57.07;101314.94;4998355;28;45595;-41
2023/03/29 03:00:08;;;;;;;;;14.33;8.33;;;;;11.23;56.86;101314.69;4998571;28;45297;-45
2023/03/29 03:02:34;;;;;;;;;14.33;10.67;;;;;11.26;56.79;101312.75;4998567;28;45480;-44
2023/03/29 03:04:59;;;;;;;;;12.33;12.00;;;;;11.25;56.78;101303.91;4998475;28;45534;-47
2023/03/29 03:07:25;;;;;;;;;12.00;11.67;;;;;11.22;56.93;101304.19;4998574;28;45440;-45
2023/03/29 03:09:50;;;;;;;;;12.33;11.00;;;;;11.21;57.10;101315.81;4998324;28;45497;-43
2023/03/29 03:12:16;;;;;;;;;14.67;12.00;;;;;11.21;56.99;101310.50;4999225;28;45497;-46
2023/03/29 03:14:41;;;;;;;;;15.33;12.33;;;;;11.22;57.29;101312.16;4998223;28;45963;-46
2023/03/29 03:17:06;;;;;;;;;13.00;12.00;;;;;11.22;56.66;101320.16;4998500;28;45413;-44
2023/03/29 03:19:32;;;;;;;;;11.67;10.33;;;;;11.20;57.21;101319.44;4998730;28;45449;-45
2023/03/29 03:21:58;;;;;;;;;15.67;11.33;;;;;11.15;57.50;101309.19;4998371;28;45519;-47
2023/03/29 03:24:24;;;;;;;;;18.00;11.00;;;;;11.23;57.33;101320.00;4998601;28;45561;-46
2023/03/29 03:26:49;;;;;;;;;13.00;12.00;;;;;11.26;57.48;101315.41;4997282;28;45550;-45
2023/03/29 03:29:15;;;;;;;;;11.00;11.00;;;;;11.27;57.60;101306.44;4998309;28;46441;-49
2023/03/29 03:31:40;;;;;;;;;16.33;12.00;;;;;11.27;57.60;101296.63;4998548;28;45354;-45
2023/03/29 03:34:07;;;;;;;;;16.67;10.00;;;;;11.25;57.15;101287.94;4997888;28;46575;-42
2023/03/29 03:36:34;;;;;;;;;17.33;14.00;;;;;11.23;57.85;101305.84;4997969;28;45389;-46
2023/03/29 03:39:01;;;;;;;;;14.00;10.33;;;;;11.29;57.59;101329.25;4998410;28;45461;-41
2023/03/29 03:41:27;;;;;;;;;6.67;6.67;;;;;11.33;57.54;101311.19;4997716;28;45789;-46
2023/03/29 03:43:53;;;;;;;;;9.33;9.00;;;;;11.37;57.19;101305.44;4998233;28;46067;-40
2023/03/29 03:46:19;;;;;;;;;8.67;8.67;;;;;11.38;57.93;101299.16;4997710;28;45470;-47
2023/03/29 03:48:45;;;;;;;;;12.00;11.00;;;;;11.38;57.44;101311.66;4998122;28;45497;-47
2023/03/29 03:51:11;;;;;;;;;7.67;7.67;;;;;11.39;57.78;101303.50;4998503;28;45461;-45
2023/03/29 03:53:36;;;;;;;;;9.33;9.00;;;;;11.28;57.70;101282.31;4997690;28;45498;-50
2023/03/29 03:56:07;;;;;;;;;11.00;10.67;;;;;11.36;58.33;101303.78;4997613;28;45446;-47
2023/03/29 03:58:34;;;;;;;;;11.00;7.00;;;;;11.30;58.17;101298.16;4998224;28;45286;-47
2023/03/29 04:01:00;;;;;;;;;12.67;10.33;;;;;11.35;58.36;101303.91;4997836;28;45477;-46
2023/03/29 04:03:25;;;;;;;;;7.00;6.00;;;;;11.37;57.96;101302.78;4997256;28;47104;-44
2023/03/29 04:05:51;;;;;;;;;12.67;8.00;;;;;11.38;58.55;101293.84;4997592;28;45881;-47
2023/03/29 04:08:16;;;;;;;;;12.00;9.67;;;;;11.43;58.71;101296.09;4980078;28;45375;-48
2023/03/29 04:10:42;;;;;;;;;10.00;8.67;;;;;11.47;58.49;101300.16;4997868;28;45419;-47
2023/03/29 04:13:08;;;;;;;;;15.67;9.67;;;;;11.49;58.43;101307.00;4997516;28;46198;-43
2023/03/29 04:15:37;;;;;;;;;14.33;11.33;;;;;11.52;58.78;101299.72;4997345;28;45474;-44
2023/03/29 04:18:03;;;;;;;;;6.00;6.00;;;;;11.53;58.80;101290.75;4997044;28;45440;-47
2023/03/29 04:20:29;;;;;;;;;17.33;11.00;;;;;11.55;59.31;101289.63;4997484;28;45420;-43
2023/03/29 04:22:54;;;;;;;;;15.33;10.00;;;;;11.57;59.36;101293.00;4997793;28;45660;-43
2023/03/29 04:25:22;;;;;;;;;10.00;7.00;;;;;11.58;58.95;101286.69;4997107;28;45558;-49
2023/03/29 04:27:49;;;;;;;;;7.33;7.00;;;;;11.61;58.85;101282.91;4997462;28;45234;-43
2023/03/29 04:30:15;;;;;;;;;11.00;9.33;;;;;11.62;58.85;101290.75;4997868;28;45455;-45
2023/03/29 04:32:41;;;;;;;;;7.67;7.67;;;;;11.60;59.00;101281.22;4996958;28;45926;-43
2023/03/29 04:35:06;;;;;;;;;7.67;7.67;;;;;11.65;59.27;101279.81;4997220;28;45262;-46
2023/03/29 04:37:32;;;;;;;;;10.67;10.33;;;;;11.65;59.39;101290.47;4997494;28;45446;-44
2023/03/29 04:40:03;;;;;;;;;8.67;8.67;;;;;11.66;59.41;101292.16;4997180;28;45922;-45
2023/03/29 04:42:28;;;;;;;;;10.00;8.00;;;;;11.66;59.50;101280.66;4997197;28;46252;-47
2023/03/29 04:44:54;;;;;;;;;12.00;8.33;;;;;11.62;59.08;101273.91;4996967;28;45396;-42
2023/03/29 04:47:20;;;;;;;;;11.00;10.00;;;;;11.68;59.01;101287.53;4997197;28;45944;-43
2023/03/29 04:49:45;;;;;;;;;7.33;7.33;;;;;11.60;59.56;101265.25;4997742;28;45472;-42
2023/03/29 04:52:11;;;;;;;;;10.67;8.00;;;;;11.70;59.78;101287.38;4996658;28;45490;-42
2023/03/29 04:54:36;;;;;;;;;8.00;8.00;;;;;11.60;59.53;101271.41;4997010;28;45409;-43
2023/03/29 04:57:03;;;;;;;;;9.33;8.33;;;;;11.74;59.88;101296.78;4997031;28;45544;-42
2023/03/29 04:59:29;;;;;;;;;9.00;9.00;;;;;11.76;59.35;101297.50;4997234;28;45379;-49
2023/03/29 05:01:54;;;;;;;;;15.67;10.00;;;;;11.77;59.60;101293.84;4996955;28;45497;-44
2023/03/29 05:04:20;;;;;;;;;13.67;8.00;;;;;11.73;60.20;101277.28;4996410;28;45479;-48
2023/03/29 05:06:46;;;;;;;;;14.67;8.67;;;;;11.71;60.48;101283.72;4996757;28;45492;-45
2023/03/29 05:09:11;;;;;;;;;11.67;8.00;;;;;11.66;62.25;101294.81;4997136;28;45467;-45
2023/03/29 05:11:37;;;;;;;;;10.00;8.00;;;;;11.63;60.98;101300.44;4996742;28;46317;-43
2023/03/29 05:14:06;;;;;;;;;8.67;8.67;;;;;11.65;63.61;101308.28;4996452;28;45486;-49
2023/03/29 05:16:33;;;;;;;;;14.33;11.00;;;;;11.65;64.53;101308.28;4995981;28;45369;-46
2023/03/29 05:18:59;;;;;;;;;12.33;6.00;;;;;11.64;64.48;101303.94;4996577;28;45540;-42
2023/03/29 05:21:25;;;;;;;;;11.00;11.00;;;;;11.64;65.12;101287.97;4996793;28;47544;-43
2023/03/29 05:23:50;;;;;;;;;7.33;6.67;;;;;11.61;64.59;101272.25;4996419;28;45481;-45
2023/03/29 05:26:16;;;;;;;;;6.67;6.33;;;;;11.63;64.13;101275.59;4996290;28;45314;-44
2023/03/29 05:28:41;;;;;;;;;12.00;10.33;;;;;11.61;64.90;101272.25;4979352;28;45665;-46
2023/03/29 05:31:07;;;;;;;;;9.00;7.33;;;;;11.57;64.77;101274.34;4996315;28;46389;-48
2023/03/29 05:33:33;;;;;;;;;12.33;8.00;;;;;11.59;64.24;101284.88;4995780;28;45432;-48
2023/03/29 05:36:04;;;;;;;;;9.00;7.33;;;;;11.58;64.23;101283.16;4996574;28;45388;-42
2023/03/29 05:38:31;;;;;;;;;14.00;7.33;;;;;11.61;64.25;101273.09;4996370;28;45561;-43
2023/03/29 05:40:57;;;;;;;;;11.67;11.00;;;;;11.63;63.50;101270.25;4978105;28;45511;-47
2023/03/29 05:43:23;;;;;;;;;12.33;9.00;;;;;11.64;64.54;101275.47;4995831;28;45385;-47
2023/03/29 05:45:48;;;;;;;;;15.00;8.00;;;;;11.62;64.30;101276.59;4978520;28;45413;-46
2023/03/29 05:48:13;;;;;;;;;9.33;9.33;;;;;11.56;64.25;101259.34;4996822;28;45576;-45
2023/03/29 05:50:38;;;;;;;;;9.00;9.00;;;;;11.65;63.46;101257.66;4995242;28;46221;-45
2023/03/29 05:53:04;;;;;;;;;10.67;7.33;;;;;11.64;63.15;101272.81;4995960;28;45501;-46
2023/03/29 05:55:29;;;;;;;;;9.00;9.00;;;;;11.63;63.33;101276.47;4995970;28;45413;-48
2023/03/29 05:57:55;;;;;;;;;8.00;8.00;;;;;11.63;63.00;101273.78;4996488;28;45485;-47
2023/03/29 06:00:24;;;;;;;;;12.33;10.33;;;;;11.66;63.09;101272.66;4996228;28;45498;-48
2023/03/29 06:02:55;;;;;;;;;10.33;8.67;;;;;11.59;62.95;101274.22;4995704;28;45975;-49
2023/03/29 06:05:21;;;;;;;;;8.00;8.00;;;;;11.66;63.24;101286.81;4995739;28;45449;-50
2023/03/29 06:07:47;;;;;;;;;13.00;9.00;;;;;11.70;62.44;101293.56;4995705;28;45465;-42
2023/03/29 06:10:14;;;;;;;;;11.33;8.00;;;;;11.70;63.97;101298.88;4993958;28;45990;-47
2023/03/29 06:12:40;;;;;;;;;8.67;8.67;;;;;11.70;63.49;101282.06;4995394;28;45577;-44
2023/03/29 06:15:07;;;;;;;;;8.67;7.33;;;;;11.71;63.21;101268.59;4995424;28;45551;-47
2023/03/29 06:17:33;;;;;;;;;12.67;8.33;;;;;11.69;63.61;101270.56;4995808;28;45452;-46
2023/03/29 06:19:59;;;;;;;;;10.00;8.67;;;;;11.73;63.89;101281.78;4995370;28;45369;-46
2023/03/29 06:22:25;;;;;;;;;11.67;9.00;;;;;11.74;64.19;101278.13;4995503;28;45311;-44
2023/03/29 06:24:50;;;;;;;;;10.00;8.00;;;;;11.74;63.82;101270.97;4995559;28;45519;-50
2023/03/29 06:27:16;;;;;;;;;11.33;9.33;;;;;11.68;64.68;101263.56;4995490;28;45531;-45
2023/03/29 06:29:41;;;;;;;;;11.00;10.00;;;;;11.76;65.02;101270.84;4995045;28;45401;-43
2023/03/29 06:32:07;;;;;;;;;11.67;8.00;;;;;11.77;65.45;101272.53;4994484;28;45726;-45
2023/03/29 06:34:33;;;;;;;;;11.00;9.00;;;;;11.80;65.50;101274.91;4995704;28;45475;-44
2023/03/29 06:36:58;;;;;;;;;11.00;9.67;;;;;11.84;64.21;101272.81;4995743;28;45554;-41
2023/03/29 06:39:25;;;;;;;;;12.67;9.33;;;;;11.86;63.65;101274.38;4995319;28;45881;-44
2023/03/29 06:41:50;;;;;;;;;7.67;7.00;;;;;11.90;63.60;101278.44;4995041;28;45443;-49
2023/03/29 06:44:16;;;;;;;;;11.00;8.00;;;;;11.91;64.95;101272.09;4995039;28;45316;-41
2023/03/29 06:46:41;;;;;;;;;12.67;11.00;;;;;11.93;65.24;101278.16;4995458;28;45584;-46
2023/03/29 06:49:06;;;;;;;;;18.67;13.33;;;;;11.96;65.17;101283.19;4994768;28;45585;-45
2023/03/29 06:51:32;;;;;;;;;8.67;8.67;;;;;12.00;64.43;101286.41;4994878;28;45361;-47
2023/03/29 06:53:57;;;;;;;;;15.00;10.33;;;;;11.99;64.44;101279.41;4995340;28;45877;-48
2023/03/29 06:56:23;;;;;;;;;14.33;10.33;;;;;12.01;63.82;101269.44;4995006;28;45524;-41
2023/03/29 06:58:48;;;;;;;;;11.67;8.33;;;;;12.02;64.09;101259.63;4995295;28;47079;-43
2023/03/29 07:01:13;;;;;;;;;10.00;10.00;;;;;12.15;64.66;101276.97;4994583;28;45439;-43
2023/03/29 07:03:40;;;;;;;;;12.00;9.33;;;;;12.26;64.13;101272.44;4995186;28;45404;-42
2023/03/29 07:06:08;;;;;;;;;15.00;8.33;;;;;12.37;63.12;101274.97;4995505;28;45386;-43
2023/03/29 07:08:46;;;;;;;;;15.00;12.00;;;;;12.48;63.41;101264.94;4994399;28;46188;-42
2023/03/29 07:11:13;;;;;;;;;15.00;11.00;;;;;12.49;62.26;101255.13;4994875;28;45705;-47
2023/03/29 07:13:41;;;;;;;;;14.00;12.00;;;;;12.64;63.13;101282.16;4995237;28;45616;-48
2023/03/29 07:16:11;;;;;;;;;11.33;10.67;;;;;12.67;62.84;101271.19;4994925;28;45326;-41
2023/03/29 07:18:36;;;;;;;;;12.00;11.00;;;;;12.84;61.57;101264.22;4994432;28;46386;-48
2023/03/29 07:21:03;;;;;;;;;14.33;12.33;;;;;12.97;61.88;101278.91;4994901;28;45484;-48
2023/03/29 07:23:28;;;;;;;;;9.33;9.33;;;;;13.00;61.25;101275.09;4994698;28;45518;-50
2023/03/29 07:25:54;;;;;;;;;14.67;9.33;;;;;12.79;61.30;101232.63;4995310;28;45456;-49
2023/03/29 07:28:20;;;;;;;;;14.00;12.00;;;;;13.18;60.95;101275.13;4994097;28;47089;-46
2023/03/29 07:30:45;;;;;;;;;15.67;13.00;;;;;13.25;61.27;101284.25;4994221;28;46802;-47
2023/03/29 07:33:11;;;;;;;;;17.00;12.00;;;;;13.38;61.03;101287.41;4994806;28;45353;-46
2023/03/29 07:35:37;;;;;;;;;11.67;7.67;;;;;13.64;60.60;101287.47;4994776;28;45606;-46
2023/03/29 07:38:02;;;;;;;;;14.33;12.67;;;;;14.35;59.30;101275.78;4994548;28;46194;-48
2023/03/29 07:40:28;;;;;;;;;19.33;13.67;;;;;14.92;57.68;101281.47;4997725;28;45453;-51
2023/03/29 07:42:55;;;;;;;;;17.33;14.00;;;;;15.48;56.40;101274.56;4997485;28;45417;-47
2023/03/29 07:45:23;;;;;;;;;12.00;11.00;;;;;15.79;54.92;101255.16;4998619;28;45544;-50
2023/03/29 07:47:54;;;;;;;;;16.33;11.00;;;;;16.01;55.01;101269.72;4996765;28;46268;-49
2023/03/29 07:50:19;;;;;;;;;13.67;11.67;;;;;15.86;54.91;101258.84;4997556;28;45463;-49
2023/03/29 07:52:45;;;;;;;;;12.00;11.67;;;;;15.61;55.16;101257.97;4998286;28;46374;-47
2023/03/29 07:55:12;;;;;;;;;10.33;10.33;;;;;15.46;55.72;101256.94;4997871;28;45595;-48
2023/03/29 07:57:37;;;;;;;;;14.00;9.67;;;;;15.30;56.15;101260.47;4997635;28;45447;-42
2023/03/29 08:00:10;;;;;;;;;13.33;11.00;;;;;15.23;56.54;101272.84;4997605;28;45459;-43
2023/03/29 08:02:36;;;;;;;;;9.00;8.00;;;;;15.14;56.74;101266.63;4997613;28;45397;-42
2023/03/29 08:05:01;;;;;;;;;15.00;9.00;;;;;15.21;56.84;101283.75;4997540;28;45286;-42
2023/03/29 08:07:26;;;;;;;;;17.33;10.67;;;;;15.24;56.90;101282.56;4997297;28;45948;-44
2023/03/29 08:09:52;;;;;;;;;12.00;10.33;;;;;15.48;56.69;101287.13;4997067;28;45440;-42
2023/03/29 08:12:17;;;;;;;;;12.67;10.00;;;;;15.58;56.53;101290.50;4997756;28;45476;-41
2023/03/29 08:14:42;;;;;;;;;14.00;10.33;;;;;15.86;56.04;101284.84;4997163;28;45435;-43
2023/03/29 08:17:08;;;;;;;;;10.00;8.33;;;;;16.35;55.06;101282.09;4997451;28;46033;-42
2023/03/29 08:19:33;;;;;;;;;10.00;10.00;;;;;16.67;54.21;101286.53;4997408;28;45443;-43
2023/03/29 08:22:00;;;;;;;;;12.33;10.33;;;;;16.59;54.17;101265.91;4997023;28;45428;-42
2023/03/29 08:24:25;;;;;;;;;11.00;9.00;;;;;16.74;54.17;101276.81;4997914;28;45455;-41
2023/03/29 08:26:50;;;;;;;;;11.33;10.00;;;;;16.49;54.36;101277.88;4996787;28;46858;-49
2023/03/29 08:29:16;;;;;;;;;13.67;9.67;;;;;16.31;55.16;101286.97;4997351;28;45338;-50
2023/03/29 08:31:41;;;;;;;;;10.33;8.33;;;;;16.02;56.03;101281.31;4997337;28;45500;-45
2023/03/29 08:34:07;;;;;;;;;11.33;9.67;;;;;15.81;56.66;101281.84;4997127;28;45412;-49
2023/03/29 08:36:32;;;;;;;;;10.00;5.67;;;;;15.75;56.91;101275.28;4996945;28;47151;-44
2023/03/29 08:38:58;;;;;;;;;9.00;9.00;;;;;15.75;56.86;101275.28;4996612;28;45432;-48
2023/03/29 08:41:32;;;;;;;;;14.00;11.00;;;;;15.95;57.22;101273.94;4979286;28;45846;-44
2023/03/29 08:44:39;;;;;;;;;9.00;6.00;;;;;16.48;56.13;101285.09;4997308;28;45429;-42
2023/03/29 08:47:10;;;;;;;;;7.33;6.33;;;;;17.16;55.12;101279.13;4916758;28;46389;-44
2023/03/29 08:49:39;;;;;;;;;11.00;8.33;;;;;17.57;54.35;101265.41;4916988;28;45495;-43
2023/03/29 08:52:15;;;;;;;;;9.67;6.00;;;;;17.59;53.88;101251.78;4916752;28;45530;-42
2023/03/29 08:54:49;;;;;;;;;8.00;6.33;;;;;18.10;53.51;101263.63;4912095;28;45526;-43
2023/03/29 08:57:20;;;;;;;;;10.33;7.00;;;;;18.81;52.44;101257.81;4914157;28;46220;-46
2023/03/29 08:59:51;;;;;;;;;10.00;8.33;;;;;19.29;50.88;101250.91;4916374;28;45521;-46
2023/03/29 09:02:21;;;;;;;;;11.00;6.33;;;;;19.75;50.19;101253.25;4916877;28;45336;-48
2023/03/29 09:04:47;;;;;;;;;8.33;6.67;;;;;19.89;49.11;101251.50;4917464;28;45488;-41
2023/03/29 09:07:13;;;;;;;;;7.00;6.67;;;;;20.21;49.24;101250.06;4916065;28;45518;-42
2023/03/29 09:09:41;;;;;;;;;8.00;7.00;;;;;20.52;49.41;101265.88;4916774;28;45408;-51
2023/03/29 09:12:27;;;;;;;;;6.25;6.00;;;;;20.89;48.40;101259.19;4916145;28;45517;-42
2023/03/29 09:15:10;;;;;;;;;4.00;4.00;;;;;21.09;47.88;101253.84;4916971;28;45559;-49
2023/03/29 09:18:23;;;;;;;;;9.00;6.00;;;;;21.32;47.70;101258.09;4916247;28;45809;-49
2023/03/29 09:21:01;;;;;;;;;10.00;4.75;;;;;21.47;47.17;101247.09;4915525;28;45636;-46
2023/03/29 09:23:59;;;;;;;;;11.00;6.00;;;;;21.51;47.75;101254.59;4934706;28;45520;-48
2023/03/29 09:26:35;;;;;;;;;5.75;4.75;;;;;21.27;47.85;101245.13;4996546;28;45434;-43
2023/03/29 09:29:38;;;;;;;;;4.75;4.00;;;;;21.20;48.26;101235.38;4995892;28;45626;-41
2023/03/29 09:32:11;;;;;;;;;8.50;5.50;;;;;21.36;47.41;101245.81;4996115;28;46648;-48
2023/03/29 09:34:44;;;;;;;;;7.75;4.50;;;;;21.27;48.03;101242.44;4996636;28;45529;-50
2023/03/29 09:37:23;;;;;;;;;8.25;7.00;;;;;20.97;48.04;101241.94;4996525;28;45457;-42
2023/03/29 09:39:51;;;;;;;;;8.50;7.00;;;;;20.82;49.19;101238.56;4996116;28;46110;-42
2023/03/29 09:42:18;;;;;;;;;4.00;4.00;;;;;21.03;47.92;101237.63;4996507;28;45506;-42
2023/03/29 09:44:49;;;;;;;;;8.75;6.50;;;;;21.02;48.23;101233.22;4996099;28;45779;-44
2023/03/29 09:47:23;;;;;;;;;13.00;8.50;;;;;20.88;47.74;101230.47;4996253;28;45811;-48
2023/03/29 09:49:56;;;;;;;;;6.00;6.00;;;;;20.64;49.05;101239.94;4993953;28;46485;-44
2023/03/29 09:52:22;;;;;;;;;13.50;6.75;;;;;21.12;48.08;101228.25;4995850;28;45821;-42
2023/03/29 09:54:48;;;;;;;;;7.00;6.00;;;;;21.98;45.79;101219.38;4996096;28;45409;-41
2023/03/29 09:57:16;;;;;;;;;7.25;5.75;;;;;22.03;45.62;101215.00;4996523;28;45569;-44
2023/03/29 09:59:44;;;;;;;;;9.50;8.00;;;;;22.49;44.54;101214.09;4995299;28;46246;-47
2023/03/29 10:02:12;;;;;;;;;10.00;8.75;;;;;22.86;44.82;101211.63;4977952;28;45480;-41
2023/03/29 10:04:40;;;;;;;;;7.25;6.00;;;;;23.20;43.60;101190.59;4996031;28;45449;-48
2023/03/29 10:07:07;;;;;;;;;9.75;5.00;;;;;23.48;43.86;101210.03;4995894;28;45671;-47
2023/03/29 10:09:34;;;;;;;;;6.75;6.75;;;;;24.07;42.12;101191.56;4995200;28;45567;-49
2023/03/29 10:12:04;;;;;;;;;8.80;8.80;;;;;24.92;40.91;101185.31;4995764;28;45506;-51
2023/03/29 10:14:37;;;;;;;;;7.60;6.80;;;;;25.82;40.54;101205.09;4995595;28;45448;-50
2023/03/29 10:17:23;;;;;;;;;4.00;3.80;;;;;27.33;37.94;101185.00;4995729;28;45419;-50
2023/03/29 10:20:01;;;;;;;;;6.00;5.00;;;;;28.81;34.62;101196.16;4995655;28;46265;-49
2023/03/29 10:22:33;;;;;;;;;8.00;5.00;;;;;29.91;33.44;101190.31;4995425;28;45358;-49
2023/03/29 10:24:59;;;;;;;;;4.80;4.80;;;;;30.40;32.10;101175.50;4995602;28;45378;-48
2023/03/29 10:27:30;;;;;;;;;8.00;6.75;;;;;31.75;30.60;101169.66;4996007;28;45386;-43
2023/03/29 10:29:58;;;;;;;;;7.00;5.40;;;;;32.64;30.29;101158.91;4994997;28;46513;-46
2023/03/29 10:32:34;;;;;;;;;7.00;5.40;;;;;32.72;28.61;101169.31;4995225;28;45374;-50
2023/03/29 10:35:15;;;;;;;;;6.60;6.60;;;;;32.93;27.98;101163.72;4995412;28;45393;-47
2023/03/29 10:37:48;;;;;;;;;9.80;8.80;;;;;33.43;29.01;101168.00;4995627;28;45475;-48
2023/03/29 10:40:45;;;;;;;;;8.40;5.40;;;;;33.90;27.50;101165.63;4994509;28;47337;-52
2023/03/29 10:43:23;;;;;;;;;7.40;7.20;;;;;33.72;26.24;101176.28;4933762;28;45483;-48
2023/03/29 10:45:51;;;;;;;;;3.80;3.80;;;;;34.10;26.88;101165.41;4934484;28;45471;-49
2023/03/29 10:48:18;;;;;;;;;2.20;1.20;;;;;33.60;25.99;101162.06;4935133;28;45542;-39
2023/03/29 10:50:48;;;;;;;;;4.00;3.80;;;;;32.55;28.66;101163.38;4933973;28;45952;-47
2023/03/29 10:53:25;;;;;;;;;6.00;3.60;;;;;32.96;27.58;101158.44;4934407;28;45320;-47
2023/03/29 10:56:10;;;;;;;;;6.60;5.00;;;;;34.20;26.19;101156.19;4933994;28;45393;-49
2023/03/29 10:58:51;;;;;;;;;4.80;3.80;;;;;34.94;26.02;101140.78;4934688;28;45502;-46
2023/03/29 11:01:42;;;;;;;;;5.80;3.40;;;;;35.07;23.40;101136.47;4933790;28;45507;-49
2023/03/29 11:04:13;;;;;;;;;5.00;5.00;;;;;34.99;24.85;101137.97;4928931;28;45533;-49
2023/03/29 11:06:52;;;;;;;;;5.20;5.20;;;;;34.93;23.02;101130.00;4934178;28;45524;-42
2023/03/29 11:09:41;;;;;;;;;6.40;5.20;;;;;34.70;22.55;101137.28;4934664;28;46140;-48
2023/03/29 11:12:40;;;;;;;;;4.80;4.80;;;;;34.09;24.31;101141.69;4934229;28;46277;-50
2023/03/29 11:15:21;;;;;;;;;4.20;2.60;;;;;34.06;22.33;101127.66;4937096;28;45419;-51
2023/03/29 11:17:51;;;;;;;;;3.20;3.20;;;;;33.58;23.96;101130.34;4937147;28;45506;-61
2023/03/29 11:20:17;;;;;;;;;4.20;2.60;;;;;32.93;22.69;101139.72;4959941;28;45447;-45
2023/03/29 11:22:52;;;;;;;;;5.25;4.50;;;;;31.96;23.73;101137.44;4998244;28;46173;-44
2023/03/29 11:25:29;;;;;;;;;3.60;3.60;;;;;31.16;24.35;101119.91;4997581;28;45542;-42
2023/03/29 11:28:25;;;;;;;;;3.80;2.60;;;;;30.42;26.23;101110.16;4998210;28;45521;-44